Hovedside
METAR-TAF:

METAR-TAF

Lufthavner :

Oljeplattform

Troll C, Norge

breddegrad: 60-53-09N, lengdegrad: 3-36-35E, høyde over havet: 20 m

Gjeldene værobservasjon

Denne rapporten ble laget for 33 minutter siden, klokken 13:20 UTC
Vind 34 kt fra Sørvest
Temperatur 8°C
Luftfuktighet 93%
Trykk 1013 hPa
Sikt 10 km eller mer

METAR: ENQC 231320Z AUTO 22034KT 9999NDV OVC006/// 08/07 Q1013 W///S5

Tid: 14:53 (13:53 UTC)


TAF: fraværende

Værobservasjoner og værvarsel for over 4000 flyplasser (METAR- og TAF-rapporter).

Tilgjengelige stasjoner er representert av de røde og gule prikkene på kartet.

Hold musepekeren over prikken for å se navnet på stasjonen.

Klikk så for å se værobservasjoner og -varsler.

For å forandre kartet kan du klikke på den grønne knappen med svart kryss for å zoome inn, på den grønne knappen med strek for å zoome ut, eller på de grønne pilene for å se tilstøtende kart.


METAR-TAF: